Time;durP1;ratioP1;P1;durP2;ratioP2;P2;SDS_P1;SDS_P2;PMS_P1;PMS_P2;Temp;Humidity;BMP_temperature;BMP_pressure;BME280_temperature;BME280_humidity;BME280_pressure;Samples;Min_cycle;Max_cycle;Signal;HPM_P1;HPM_P2
2023/12/29 00:01:13;;;;;;;4.70;1.35;;;;;;;;;;5002388;28;20096;-77
2023/12/29 00:03:38;;;;;;;3.53;1.30;;;;;;;;;;5001618;28;20041;-77
2023/12/29 00:06:04;;;;;;;10.32;1.55;;;;;;;;;;4987964;28;20053;-77
2023/12/29 00:08:31;;;;;;;7.30;1.85;;;;;;;;;;4983229;28;20117;-77
2023/12/29 00:10:56;;;;;;;6.78;1.40;;;;;;;;;;4981599;28;20511;-77
2023/12/29 00:13:23;;;;;;;3.13;1.17;;;;;;;;;;4981617;28;20097;-77
2023/12/29 00:15:52;;;;;;;11.93;1.98;;;;;;;;;;4983676;28;20026;-77
2023/12/29 00:18:18;;;;;;;8.73;1.55;;;;;;;;;;4983279;28;20069;-78
2023/12/29 00:20:44;;;;;;;5.75;1.70;;;;;;;;;;4982800;28;20058;-77
2023/12/29 00:23:09;;;;;;;5.03;1.40;;;;;;;;;;4983783;28;20037;-77
2023/12/29 00:25:37;;;;;;;8.73;1.98;;;;;;;;;;4983710;28;20050;-77
2023/12/29 00:28:04;;;;;;;6.72;1.48;;;;;;;;;;4995981;28;20034;-77
2023/12/29 00:30:29;;;;;;;7.10;1.27;;;;;;;;;;4985215;28;20051;-77
2023/12/29 00:32:55;;;;;;;8.70;1.80;;;;;;;;;;4985156;28;20057;-76
2023/12/29 00:35:20;;;;;;;6.18;1.40;;;;;;;;;;4991481;28;20034;-77
2023/12/29 00:37:46;;;;;;;6.65;1.40;;;;;;;;;;5004774;28;20109;-77
2023/12/29 00:40:11;;;;;;;12.10;1.88;;;;;;;;;;5007572;28;20025;-77
2023/12/29 00:42:37;;;;;;;7.50;2.28;;;;;;;;;;5006152;28;20573;-77
2023/12/29 00:45:03;;;;;;;8.60;1.88;;;;;;;;;;5010236;28;20034;-77
2023/12/29 00:47:28;;;;;;;10.77;2.42;;;;;;;;;;5017573;28;20385;-77
2023/12/29 00:49:54;;;;;;;6.57;1.80;;;;;;;;;;5011414;28;20508;-77
2023/12/29 00:52:19;;;;;;;6.22;1.35;;;;;;;;;;5004772;28;20024;-77
2023/12/29 00:54:44;;;;;;;12.93;2.05;;;;;;;;;;5026049;28;20046;-77
2023/12/29 00:57:10;;;;;;;9.68;1.77;;;;;;;;;;5017387;28;20752;-77
2023/12/29 00:59:38;;;;;;;10.98;1.75;;;;;;;;;;5025582;28;20033;-77
2023/12/29 01:02:03;;;;;;;11.25;1.95;;;;;;;;;;5023791;28;20091;-77
2023/12/29 01:04:28;;;;;;;7.90;1.70;;;;;;;;;;5024262;28;20033;-77
2023/12/29 01:06:54;;;;;;;6.60;1.58;;;;;;;;;;5025379;28;20021;-77
2023/12/29 01:09:19;;;;;;;10.95;1.38;;;;;;;;;;5023661;28;20427;-77
2023/12/29 01:11:44;;;;;;;3.92;1.38;;;;;;;;;;5025412;28;20578;-77
2023/12/29 01:14:10;;;;;;;4.75;1.50;;;;;;;;;;5018977;28;20049;-76
2023/12/29 01:16:35;;;;;;;12.23;1.75;;;;;;;;;;5003480;28;20053;-77
2023/12/29 01:19:01;;;;;;;7.20;1.45;;;;;;;;;;4986640;28;20026;-77
2023/12/29 01:21:26;;;;;;;6.18;1.52;;;;;;;;;;4984044;28;20044;-77
2023/12/29 01:23:51;;;;;;;10.65;1.67;;;;;;;;;;4984419;28;20511;-77
2023/12/29 01:26:17;;;;;;;12.10;1.58;;;;;;;;;;4985407;28;20034;-78
2023/12/29 01:28:42;;;;;;;7.57;1.23;;;;;;;;;;4985003;28;20031;-77
2023/12/29 01:31:08;;;;;;;8.90;1.40;;;;;;;;;;4985047;28;20042;-77
2023/12/29 01:33:34;;;;;;;9.98;2.10;;;;;;;;;;4983950;28;20042;-77
2023/12/29 01:36:00;;;;;;;9.15;1.70;;;;;;;;;;4996990;28;20474;-77
2023/12/29 01:38:25;;;;;;;4.35;1.50;;;;;;;;;;5003282;28;20046;-77
2023/12/29 01:40:51;;;;;;;12.27;1.58;;;;;;;;;;5004994;28;20034;-77
2023/12/29 01:43:16;;;;;;;4.00;1.50;;;;;;;;;;5005280;28;20029;-76
2023/12/29 01:45:41;;;;;;;6.53;1.33;;;;;;;;;;4994827;28;20038;-76
2023/12/29 01:48:08;;;;;;;9.07;1.45;;;;;;;;;;4997469;28;20060;-77
2023/12/29 01:50:34;;;;;;;3.00;1.02;;;;;;;;;;4994070;28;20135;-77
2023/12/29 01:53:01;;;;;;;4.97;1.13;;;;;;;;;;5000507;28;20042;-78
2023/12/29 01:55:27;;;;;;;9.07;1.52;;;;;;;;;;5002330;28;20054;-77
2023/12/29 01:57:54;;;;;;;6.30;1.80;;;;;;;;;;5005716;28;20099;-77
2023/12/29 02:00:20;;;;;;;5.45;1.70;;;;;;;;;;5004047;28;20545;-78
2023/12/29 02:02:46;;;;;;;4.38;1.40;;;;;;;;;;4990102;28;20050;-77
2023/12/29 02:05:14;;;;;;;11.35;2.28;;;;;;;;;;4993593;28;20049;-77
2023/12/29 02:07:40;;;;;;;9.27;1.55;;;;;;;;;;5001274;28;20038;-77
2023/12/29 02:10:06;;;;;;;11.50;1.65;;;;;;;;;;4996709;28;20026;-77
2023/12/29 02:12:34;;;;;;;7.78;2.00;;;;;;;;;;4988152;28;20125;-76
2023/12/29 02:14:59;;;;;;;6.57;1.65;;;;;;;;;;4985423;28;20129;-77
2023/12/29 02:17:34;;;;;;;9.40;1.65;;;;;;;;;;4985961;28;20137;-77
2023/12/29 02:20:00;;;;;;;7.85;1.58;;;;;;;;;;5001940;28;20463;-77
2023/12/29 02:22:26;;;;;;;5.40;1.38;;;;;;;;;;4992424;28;20061;-77
2023/12/29 02:24:51;;;;;;;9.82;2.15;;;;;;;;;;4985515;28;20060;-77
2023/12/29 02:27:46;;;;;;;7.43;2.05;;;;;;;;;;4985029;28;20070;-77
2023/12/29 02:30:49;;;;;;;10.50;2.20;;;;;;;;;;4984943;28;20061;-78
2023/12/29 02:33:18;;;;;;;8.38;2.10;;;;;;;;;;4983181;28;20117;-78
2023/12/29 02:35:48;;;;;;;6.57;1.73;;;;;;;;;;4993778;28;20050;-77
2023/12/29 02:38:14;;;;;;;9.25;2.13;;;;;;;;;;5004047;28;20057;-77
2023/12/29 02:40:40;;;;;;;8.05;1.77;;;;;;;;;;5002702;28;20038;-77
2023/12/29 02:43:05;;;;;;;8.32;1.60;;;;;;;;;;5003081;28;20081;-77
2023/12/29 02:45:31;;;;;;;10.70;2.15;;;;;;;;;;5003612;28;20132;-77
2023/12/29 02:47:56;;;;;;;9.02;2.42;;;;;;;;;;4996586;28;20038;-77
2023/12/29 02:50:21;;;;;;;11.10;1.95;;;;;;;;;;4998586;28;20046;-77
2023/12/29 02:52:47;;;;;;;6.50;2.60;;;;;;;;;;4984864;28;20092;-77
2023/12/29 02:55:12;;;;;;;6.50;1.50;;;;;;;;;;4998945;28;21101;-77
2023/12/29 02:57:38;;;;;;;7.70;1.75;;;;;;;;;;5001716;28;20036;-77
2023/12/29 03:00:05;;;;;;;9.95;1.55;;;;;;;;;;4989264;28;20065;-76
2023/12/29 03:02:30;;;;;;;9.32;2.67;;;;;;;;;;4982246;28;20116;-77
2023/12/29 03:04:55;;;;;;;6.00;1.48;;;;;;;;;;4982529;28;20058;-76
2023/12/29 03:07:21;;;;;;;10.82;1.67;;;;;;;;;;4984382;28;20132;-77
2023/12/29 03:09:47;;;;;;;8.23;1.90;;;;;;;;;;4982699;28;20026;-77
2023/12/29 03:12:12;;;;;;;11.10;1.80;;;;;;;;;;4984048;28;20535;-78
2023/12/29 03:14:38;;;;;;;7.90;2.13;;;;;;;;;;4982321;28;20632;-77
2023/12/29 03:17:03;;;;;;;15.68;2.33;;;;;;;;;;4982795;28;20069;-77
2023/12/29 03:19:29;;;;;;;8.23;1.88;;;;;;;;;;4982592;28;20030;-77
2023/12/29 03:21:54;;;;;;;6.18;1.05;;;;;;;;;;4985381;28;20023;-77
2023/12/29 03:24:20;;;;;;;8.32;1.50;;;;;;;;;;4989047;28;20050;-77
2023/12/29 03:26:45;;;;;;;7.25;2.15;;;;;;;;;;4994596;28;20077;-77
2023/12/29 03:29:11;;;;;;;5.88;1.83;;;;;;;;;;4991341;28;20057;-77
2023/12/29 03:31:36;;;;;;;8.30;1.80;;;;;;;;;;4981832;28;20543;-77
2023/12/29 03:34:02;;;;;;;9.40;2.05;;;;;;;;;;4987556;28;20032;-77
2023/12/29 03:36:27;;;;;;;9.70;1.30;;;;;;;;;;4981524;28;20054;-77
2023/12/29 03:38:53;;;;;;;7.35;1.80;;;;;;;;;;4981851;28;20121;-77
2023/12/29 03:41:18;;;;;;;12.30;1.92;;;;;;;;;;4981686;28;20041;-77
2023/12/29 03:43:44;;;;;;;6.50;1.85;;;;;;;;;;4982114;28;20085;-77
2023/12/29 03:46:17;;;;;;;7.75;2.10;;;;;;;;;;4984040;28;20030;-76
2023/12/29 03:48:42;;;;;;;8.75;2.15;;;;;;;;;;4981983;28;20176;-77
2023/12/29 03:51:08;;;;;;;8.75;1.50;;;;;;;;;;4981624;28;20118;-77
2023/12/29 03:53:33;;;;;;;7.50;1.83;;;;;;;;;;4983027;28;20050;-76
2023/12/29 03:55:59;;;;;;;12.38;1.92;;;;;;;;;;4986614;28;20125;-77
2023/12/29 03:58:24;;;;;;;10.35;2.15;;;;;;;;;;4998571;28;20459;-77
2023/12/29 04:00:49;;;;;;;3.95;1.17;;;;;;;;;;4991103;28;20130;-77
2023/12/29 04:03:15;;;;;;;14.40;2.30;;;;;;;;;;4994757;28;20479;-77
2023/12/29 04:05:40;;;;;;;8.40;1.60;;;;;;;;;;5002452;28;20034;-77
2023/12/29 04:08:06;;;;;;;14.57;1.65;;;;;;;;;;5006741;28;20161;-77
2023/12/29 04:10:31;;;;;;;6.00;1.48;;;;;;;;;;5000183;28;20037;-77
2023/12/29 04:12:57;;;;;;;9.05;1.58;;;;;;;;;;5006793;28;20029;-77
2023/12/29 04:15:22;;;;;;;9.00;2.10;;;;;;;;;;5005092;28;20554;-77
2023/12/29 04:17:47;;;;;;;8.45;2.05;;;;;;;;;;5001741;28;20041;-77
2023/12/29 04:20:13;;;;;;;6.95;1.80;;;;;;;;;;5005251;28;20074;-77
2023/12/29 04:22:38;;;;;;;13.18;1.77;;;;;;;;;;5006392;28;20112;-77
2023/12/29 04:25:04;;;;;;;6.47;1.58;;;;;;;;;;5005282;28;20029;-77
2023/12/29 04:27:29;;;;;;;8.43;1.50;;;;;;;;;;5006447;28;20123;-76
2023/12/29 04:29:54;;;;;;;9.27;1.85;;;;;;;;;;5006054;28;20081;-77
2023/12/29 04:32:20;;;;;;;7.50;1.63;;;;;;;;;;5004578;28;20515;-77
2023/12/29 04:34:45;;;;;;;11.98;3.25;;;;;;;;;;5000646;28;20045;-77
2023/12/29 04:37:11;;;;;;;9.52;1.65;;;;;;;;;;5004985;28;20048;-77
2023/12/29 04:39:37;;;;;;;9.38;1.60;;;;;;;;;;5007057;28;20138;-78
2023/12/29 04:42:02;;;;;;;10.07;1.55;;;;;;;;;;5007765;28;20565;-77
2023/12/29 04:44:28;;;;;;;8.27;1.42;;;;;;;;;;5011639;28;20050;-77
2023/12/29 04:46:53;;;;;;;8.98;2.03;;;;;;;;;;5020640;28;20034;-77
2023/12/29 04:49:18;;;;;;;5.60;1.73;;;;;;;;;;5017548;28;20489;-77
2023/12/29 04:51:44;;;;;;;6.35;1.40;;;;;;;;;;5008688;28;20030;-77
2023/12/29 04:54:09;;;;;;;6.10;1.80;;;;;;;;;;5006842;28;20064;-77
2023/12/29 04:56:35;;;;;;;10.93;1.75;;;;;;;;;;5006620;28;20107;-76
2023/12/29 04:59:00;;;;;;;5.80;1.25;;;;;;;;;;5005693;28;20336;-77
2023/12/29 05:01:26;;;;;;;6.32;1.35;;;;;;;;;;5004767;28;20026;-77
2023/12/29 05:03:51;;;;;;;6.95;1.63;;;;;;;;;;5006300;28;20029;-77
2023/12/29 05:06:17;;;;;;;7.10;1.83;;;;;;;;;;5005581;28;20069;-77
2023/12/29 05:08:42;;;;;;;7.82;1.30;;;;;;;;;;5005511;28;20128;-77
2023/12/29 05:11:07;;;;;;;10.23;1.90;;;;;;;;;;4984542;28;20051;-77
2023/12/29 05:13:33;;;;;;;5.50;2.17;;;;;;;;;;5003828;28;20491;-77
2023/12/29 05:15:58;;;;;;;8.40;1.63;;;;;;;;;;5005282;28;20279;-76
2023/12/29 05:18:23;;;;;;;7.68;1.70;;;;;;;;;;5005672;28;20030;-77
2023/12/29 05:20:49;;;;;;;10.73;1.70;;;;;;;;;;5003500;28;20087;-77
2023/12/29 05:23:14;;;;;;;12.80;1.80;;;;;;;;;;4985906;28;20061;-77
2023/12/29 05:25:40;;;;;;;10.40;1.67;;;;;;;;;;4985949;28;20030;-77
2023/12/29 05:28:05;;;;;;;16.23;2.63;;;;;;;;;;4984568;28;20041;-77
2023/12/29 05:30:32;;;;;;;6.90;1.70;;;;;;;;;;4999440;28;20065;-77
2023/12/29 05:32:57;;;;;;;9.02;1.80;;;;;;;;;;4984114;28;21059;-77
2023/12/29 05:35:22;;;;;;;6.55;1.45;;;;;;;;;;4985542;28;20503;-77
2023/12/29 05:37:48;;;;;;;6.97;1.95;;;;;;;;;;4983713;28;20042;-78
2023/12/29 05:40:14;;;;;;;8.15;1.73;;;;;;;;;;5000966;28;20058;-77
2023/12/29 05:42:39;;;;;;;15.70;1.73;;;;;;;;;;4985621;28;20038;-77
2023/12/29 05:45:05;;;;;;;13.05;2.10;;;;;;;;;;4985709;28;20121;-76
2023/12/29 05:47:30;;;;;;;12.13;1.60;;;;;;;;;;4984534;28;20120;-76
2023/12/29 05:49:56;;;;;;;9.30;1.70;;;;;;;;;;4984300;28;20061;-76
2023/12/29 05:52:21;;;;;;;7.90;1.23;;;;;;;;;;4983807;28;20498;-77
2023/12/29 05:54:47;;;;;;;7.30;1.63;;;;;;;;;;4985483;28;20523;-77
2023/12/29 05:57:12;;;;;;;6.72;1.15;;;;;;;;;;4986377;28;20428;-77
2023/12/29 05:59:37;;;;;;;9.55;1.33;;;;;;;;;;5005352;28;20427;-77
2023/12/29 06:02:03;;;;;;;16.23;3.15;;;;;;;;;;5006476;28;20045;-77
2023/12/29 06:04:28;;;;;;;6.30;1.55;;;;;;;;;;5011129;28;20030;-76
2023/12/29 06:06:54;;;;;;;7.50;1.33;;;;;;;;;;5016413;28;20022;-77
2023/12/29 06:09:19;;;;;;;9.00;1.50;;;;;;;;;;5007000;28;20531;-77
2023/12/29 06:11:44;;;;;;;7.95;1.30;;;;;;;;;;5002474;28;20056;-77
2023/12/29 06:14:10;;;;;;;5.30;1.52;;;;;;;;;;5002595;28;20081;-77
2023/12/29 06:16:35;;;;;;;11.63;1.98;;;;;;;;;;5003116;28;20037;-77
2023/12/29 06:19:01;;;;;;;9.18;1.90;;;;;;;;;;5003180;28;20049;-76
2023/12/29 06:21:26;;;;;;;12.40;2.15;;;;;;;;;;5002716;28;20427;-77
2023/12/29 06:23:51;;;;;;;6.75;1.60;;;;;;;;;;5002645;28;20086;-76
2023/12/29 06:26:18;;;;;;;9.32;1.58;;;;;;;;;;5003330;28;20100;-77
2023/12/29 06:28:44;;;;;;;4.40;1.35;;;;;;;;;;5004014;28;20029;-77
2023/12/29 06:31:10;;;;;;;6.65;1.40;;;;;;;;;;5000796;28;20046;-77
2023/12/29 06:33:35;;;;;;;9.05;1.50;;;;;;;;;;5002426;28;20038;-77
2023/12/29 06:36:01;;;;;;;8.35;1.55;;;;;;;;;;5003827;28;20049;-77
2023/12/29 06:38:26;;;;;;;14.65;3.88;;;;;;;;;;5002062;28;20096;-76
2023/12/29 06:40:51;;;;;;;9.55;1.60;;;;;;;;;;4993224;28;20037;-77
2023/12/29 06:43:17;;;;;;;7.68;1.60;;;;;;;;;;5001682;28;20026;-77
2023/12/29 06:45:42;;;;;;;7.20;1.90;;;;;;;;;;5003596;28;20084;-77
2023/12/29 06:48:08;;;;;;;17.00;1.48;;;;;;;;;;5003099;28;20026;-77
2023/12/29 06:50:33;;;;;;;9.15;2.25;;;;;;;;;;5003061;28;20033;-77
2023/12/29 06:52:59;;;;;;;8.25;1.65;;;;;;;;;;5004949;28;20494;-77
2023/12/29 06:55:25;;;;;;;10.52;1.60;;;;;;;;;;4980733;28;20033;-77
2023/12/29 06:57:51;;;;;;;10.82;2.03;;;;;;;;;;4991423;28;20033;-77
2023/12/29 07:00:16;;;;;;;9.35;2.28;;;;;;;;;;4993740;28;20042;-77
2023/12/29 07:02:42;;;;;;;11.45;2.10;;;;;;;;;;4983994;28;20841;-77
2023/12/29 07:05:07;;;;;;;10.15;1.85;;;;;;;;;;4983594;28;20070;-77
2023/12/29 07:07:35;;;;;;;4.57;1.77;;;;;;;;;;4983293;28;20057;-77
2023/12/29 07:10:00;;;;;;;8.10;1.58;;;;;;;;;;4985340;28;20057;-77
2023/12/29 07:12:26;;;;;;;5.05;1.85;;;;;;;;;;4993844;28;20081;-76
2023/12/29 07:14:51;;;;;;;6.90;1.52;;;;;;;;;;5004962;28;20037;-76
2023/12/29 07:17:19;;;;;;;6.32;1.27;;;;;;;;;;5005118;28;20037;-76
2023/12/29 07:19:45;;;;;;;6.38;1.30;;;;;;;;;;4989528;28;20058;-76
2023/12/29 07:22:10;;;;;;;8.60;1.50;;;;;;;;;;4985791;28;20060;-76
2023/12/29 07:24:36;;;;;;;11.57;2.60;;;;;;;;;;4994002;28;20035;-76
2023/12/29 07:27:02;;;;;;;5.70;1.45;;;;;;;;;;5001226;28;20057;-76
2023/12/29 07:29:27;;;;;;;7.15;1.42;;;;;;;;;;4989797;28;20148;-76
2023/12/29 07:31:53;;;;;;;7.03;1.60;;;;;;;;;;4983979;28;20042;-76
2023/12/29 07:34:19;;;;;;;13.35;1.92;;;;;;;;;;4984852;28;20030;-76
2023/12/29 07:36:45;;;;;;;3.92;1.40;;;;;;;;;;5003090;28;20069;-76
2023/12/29 07:39:10;;;;;;;11.07;1.60;;;;;;;;;;4989650;28;20080;-76
2023/12/29 07:41:40;;;;;;;6.18;1.27;;;;;;;;;;4994340;28;20268;-76
2023/12/29 07:44:06;;;;;;;4.63;1.23;;;;;;;;;;5002689;28;20080;-76
2023/12/29 07:46:32;;;;;;;6.28;1.90;;;;;;;;;;5003271;28;20061;-76
2023/12/29 07:48:57;;;;;;;5.78;1.40;;;;;;;;;;5003245;28;20022;-76
2023/12/29 07:51:22;;;;;;;4.38;1.27;;;;;;;;;;5001568;28;20050;-76
2023/12/29 07:53:48;;;;;;;7.00;1.42;;;;;;;;;;5002554;28;20532;-76
2023/12/29 07:56:14;;;;;;;5.60;1.33;;;;;;;;;;5002630;28;20075;-76
2023/12/29 07:58:39;;;;;;;8.50;1.40;;;;;;;;;;5003555;28;20072;-75
2023/12/29 08:01:05;;;;;;;6.40;1.52;;;;;;;;;;5002998;28;20065;-76
2023/12/29 08:03:30;;;;;;;7.82;1.55;;;;;;;;;;5002029;28;20034;-76
2023/12/29 08:05:55;;;;;;;3.70;1.35;;;;;;;;;;5002405;28;20065;-76
2023/12/29 08:08:21;;;;;;;2.35;0.85;;;;;;;;;;5003291;28;20042;-75
2023/12/29 08:10:46;;;;;;;5.82;1.58;;;;;;;;;;5002890;28;20095;-76
2023/12/29 08:13:12;;;;;;;5.78;1.60;;;;;;;;;;5004004;28;20038;-75
2023/12/29 08:15:37;;;;;;;8.35;1.58;;;;;;;;;;5003582;28;20125;-76
2023/12/29 08:18:06;;;;;;;4.88;2.17;;;;;;;;;;5001826;28;20064;-75
2023/12/29 08:20:31;;;;;;;4.82;1.48;;;;;;;;;;5003569;28;20046;-75
2023/12/29 08:22:57;;;;;;;12.90;1.50;;;;;;;;;;5003258;28;20046;-75
2023/12/29 08:25:22;;;;;;;14.63;2.17;;;;;;;;;;5003214;28;20033;-76
2023/12/29 08:27:48;;;;;;;10.60;1.75;;;;;;;;;;4997948;28;20492;-76
2023/12/29 08:30:13;;;;;;;8.98;1.33;;;;;;;;;;4985453;28;20042;-76
2023/12/29 08:32:39;;;;;;;5.10;1.15;;;;;;;;;;4988254;28;20038;-75
2023/12/29 08:35:06;;;;;;;7.97;1.50;;;;;;;;;;4990520;28;20166;-75
2023/12/29 08:37:33;;;;;;;10.60;1.88;;;;;;;;;;5002904;28;20041;-75
2023/12/29 08:39:59;;;;;;;11.88;2.17;;;;;;;;;;4991592;28;20574;-75
2023/12/29 08:42:24;;;;;;;6.75;1.90;;;;;;;;;;4994603;28;20034;-76
2023/12/29 08:44:49;;;;;;;7.75;2.40;;;;;;;;;;5000288;28;20066;-76
2023/12/29 08:47:15;;;;;;;6.20;1.27;;;;;;;;;;5001004;28;20367;-73
2023/12/29 08:49:43;;;;;;;9.38;1.75;;;;;;;;;;4998310;28;20034;-74
2023/12/29 08:52:09;;;;;;;4.88;1.10;;;;;;;;;;4995997;28;20029;-74
2023/12/29 08:54:34;;;;;;;7.78;1.10;;;;;;;;;;4991478;28;20522;-74
2023/12/29 08:57:00;;;;;;;10.63;1.60;;;;;;;;;;4998182;28;20072;-74
2023/12/29 08:59:25;;;;;;;7.47;1.70;;;;;;;;;;5003902;28;20052;-73
2023/12/29 09:01:51;;;;;;;5.72;1.55;;;;;;;;;;5003775;28;20037;-74
2023/12/29 09:04:16;;;;;;;2.72;1.20;;;;;;;;;;5004237;28;20061;-74
2023/12/29 09:06:42;;;;;;;7.47;1.88;;;;;;;;;;4984512;28;20041;-76
2023/12/29 09:09:10;;;;;;;7.40;1.30;;;;;;;;;;4986619;28;20097;-74
2023/12/29 09:11:37;;;;;;;8.13;1.52;;;;;;;;;;4986841;28;20042;-74
2023/12/29 09:14:03;;;;;;;7.38;1.70;;;;;;;;;;5004735;28;20033;-74
2023/12/29 09:16:28;;;;;;;6.85;1.90;;;;;;;;;;4996456;28;20026;-73
2023/12/29 09:18:53;;;;;;;9.18;1.35;;;;;;;;;;4990011;28;20033;-75
2023/12/29 09:21:19;;;;;;;8.48;1.80;;;;;;;;;;4991873;28;20050;-75
2023/12/29 09:23:44;;;;;;;10.57;1.38;;;;;;;;;;4989610;28;20042;-75
2023/12/29 09:26:10;;;;;;;10.43;1.70;;;;;;;;;;5001484;28;20101;-75
2023/12/29 09:28:35;;;;;;;7.35;1.67;;;;;;;;;;5003755;28;20764;-74
2023/12/29 09:31:00;;;;;;;5.55;1.50;;;;;;;;;;5002629;28;20057;-75
2023/12/29 09:33:26;;;;;;;9.20;1.55;;;;;;;;;;5004491;28;20059;-75
2023/12/29 09:35:51;;;;;;;8.02;2.03;;;;;;;;;;5003360;28;20053;-75
2023/12/29 09:38:18;;;;;;;3.97;1.38;;;;;;;;;;5004475;28;20080;-75
2023/12/29 09:40:44;;;;;;;13.23;2.15;;;;;;;;;;5003441;28;20755;-75
2023/12/29 09:43:10;;;;;;;15.40;2.22;;;;;;;;;;5002470;28;20037;-75
2023/12/29 09:45:40;;;;;;;6.38;1.83;;;;;;;;;;5004499;28;20049;-75
2023/12/29 09:48:07;;;;;;;4.05;1.10;;;;;;;;;;4985303;28;20066;-75
2023/12/29 09:50:35;;;;;;;7.63;1.98;;;;;;;;;;4993113;28;20512;-74
2023/12/29 09:53:02;;;;;;;8.68;1.90;;;;;;;;;;5003404;28;20033;-75
2023/12/29 09:55:28;;;;;;;15.95;2.28;;;;;;;;;;4985995;28;20038;-75
2023/12/29 09:57:55;;;;;;;3.17;1.23;;;;;;;;;;4991270;28;20108;-74
2023/12/29 10:00:20;;;;;;;10.27;1.58;;;;;;;;;;5008467;28;20038;-75
2023/12/29 10:02:50;;;;;;;8.77;1.90;;;;;;;;;;5016343;28;20512;-75
2023/12/29 10:05:16;;;;;;;11.52;1.63;;;;;;;;;;5022254;28;20034;-75
2023/12/29 10:07:44;;;;;;;13.20;1.67;;;;;;;;;;5007674;28;20132;-75
2023/12/29 10:10:14;;;;;;;6.93;1.20;;;;;;;;;;5006131;28;20033;-74
2023/12/29 10:12:40;;;;;;;7.10;1.77;;;;;;;;;;5003276;28;20129;-75
2023/12/29 10:15:20;;;;;;;7.93;1.63;;;;;;;;;;5003507;28;20107;-74
2023/12/29 10:17:59;;;;;;;7.35;1.40;;;;;;;;;;5004219;28;20601;-74
2023/12/29 10:20:27;;;;;;;7.75;1.65;;;;;;;;;;5004116;28;20044;-74
2023/12/29 10:23:16;;;;;;;9.32;1.80;;;;;;;;;;5002426;28;20782;-75
2023/12/29 10:25:42;;;;;;;6.65;1.90;;;;;;;;;;4999651;28;20124;-74
2023/12/29 10:28:09;;;;;;;7.88;1.55;;;;;;;;;;5002779;28;20128;-74
2023/12/29 10:30:35;;;;;;;8.30;1.55;;;;;;;;;;5001775;28;20088;-75
2023/12/29 10:33:02;;;;;;;4.25;1.77;;;;;;;;;;5001826;28;20070;-74
2023/12/29 10:35:29;;;;;;;8.27;1.25;;;;;;;;;;5001280;28;20128;-75
2023/12/29 10:37:54;;;;;;;4.07;1.55;;;;;;;;;;4996828;28;20038;-75
2023/12/29 10:40:21;;;;;;;7.13;1.45;;;;;;;;;;4989447;28;20041;-77
2023/12/29 10:42:57;;;;;;;7.78;1.42;;;;;;;;;;4983182;28;20026;-76
2023/12/29 10:45:24;;;;;;;5.85;1.55;;;;;;;;;;4983390;28;20047;-76
2023/12/29 10:47:50;;;;;;;6.97;1.25;;;;;;;;;;4982436;28;20069;-76
2023/12/29 10:50:16;;;;;;;6.95;1.40;;;;;;;;;;4982213;28;20097;-75
2023/12/29 10:52:42;;;;;;;9.38;1.60;;;;;;;;;;4982207;28;20046;-75
2023/12/29 10:55:11;;;;;;;10.52;1.77;;;;;;;;;;4982883;28;20444;-75
2023/12/29 10:57:37;;;;;;;6.07;1.48;;;;;;;;;;4987254;28;20049;-75
2023/12/29 11:00:03;;;;;;;7.55;1.40;;;;;;;;;;5002928;28;20125;-75
2023/12/29 11:02:29;;;;;;;5.15;1.60;;;;;;;;;;5003331;28;20057;-75
2023/12/29 11:05:08;;;;;;;4.95;1.30;;;;;;;;;;5003346;28;20089;-76
2023/12/29 11:07:37;;;;;;;12.93;1.83;;;;;;;;;;5001772;28;20037;-75
2023/12/29 11:10:04;;;;;;;2.92;1.33;;;;;;;;;;5002423;28;20034;-76
2023/12/29 11:12:32;;;;;;;10.52;1.77;;;;;;;;;;5002502;28;20452;-75
2023/12/29 11:14:58;;;;;;;7.55;2.15;;;;;;;;;;5003305;28;20042;-76
2023/12/29 11:17:26;;;;;;;8.88;1.63;;;;;;;;;;5002703;28;20582;-76
2023/12/29 11:19:52;;;;;;;7.05;1.77;;;;;;;;;;5006541;28;20042;-76
2023/12/29 11:22:18;;;;;;;8.43;1.52;;;;;;;;;;5014896;28;20742;-76
2023/12/29 11:24:47;;;;;;;10.05;2.15;;;;;;;;;;4999108;28;20048;-76
2023/12/29 11:27:12;;;;;;;11.80;1.80;;;;;;;;;;4985926;28;20060;-76
2023/12/29 11:29:41;;;;;;;5.35;1.50;;;;;;;;;;4987897;28;20427;-76
2023/12/29 11:32:16;;;;;;;5.20;1.42;;;;;;;;;;4991557;28;20073;-76
2023/12/29 11:34:51;;;;;;;7.72;1.33;;;;;;;;;;4987705;28;20474;-77
2023/12/29 11:37:22;;;;;;;5.43;1.50;;;;;;;;;;4990770;28;20026;-76
2023/12/29 11:40:10;;;;;;;4.53;1.67;;;;;;;;;;5013376;28;20050;-76
2023/12/29 11:42:40;;;;;;;6.07;1.30;;;;;;;;;;5000523;28;20081;-76
2023/12/29 11:45:26;;;;;;;5.10;1.73;;;;;;;;;;4995880;28;20046;-76
2023/12/29 11:47:53;;;;;;;5.57;1.63;;;;;;;;;;4990835;28;20758;-76
2023/12/29 11:50:28;;;;;;;12.70;1.65;;;;;;;;;;5001920;28;20056;-76
2023/12/29 11:52:53;;;;;;;5.05;1.50;;;;;;;;;;5002547;28;20041;-76
2023/12/29 11:55:19;;;;;;;6.43;1.27;;;;;;;;;;5002769;28;20030;-76
2023/12/29 11:57:45;;;;;;;6.97;1.33;;;;;;;;;;5002381;28;20093;-76
2023/12/29 12:00:11;;;;;;;5.45;1.30;;;;;;;;;;4992727;28;20046;-76
2023/12/29 12:02:37;;;;;;;4.93;1.15;;;;;;;;;;4986019;28;20049;-76
2023/12/29 12:05:03;;;;;;;8.70;1.92;;;;;;;;;;4988206;28;20054;-76
2023/12/29 12:07:28;;;;;;;3.80;1.08;;;;;;;;;;4992719;28;20112;-76
2023/12/29 12:10:32;;;;;;;8.45;1.45;;;;;;;;;;4981698;28;20034;-76
2023/12/29 12:12:59;;;;;;;4.88;1.10;;;;;;;;;;5001057;28;20050;-76
2023/12/29 12:15:28;;;;;;;2.72;1.10;;;;;;;;;;4985222;28;20415;-76
2023/12/29 12:17:54;;;;;;;6.63;1.38;;;;;;;;;;4982927;28;20145;-76
2023/12/29 12:20:20;;;;;;;7.35;1.58;;;;;;;;;;4997209;28;20053;-76
2023/12/29 12:22:50;;;;;;;3.83;1.10;;;;;;;;;;5001166;28;20034;-76
2023/12/29 12:25:15;;;;;;;8.75;1.52;;;;;;;;;;5000717;28;20033;-76
2023/12/29 12:27:41;;;;;;;5.95;1.50;;;;;;;;;;4990475;28;20042;-76
2023/12/29 12:30:09;;;;;;;7.32;1.80;;;;;;;;;;4995709;28;20065;-76
2023/12/29 12:32:35;;;;;;;3.97;1.40;;;;;;;;;;5003326;28;20061;-76
2023/12/29 12:35:01;;;;;;;6.28;1.58;;;;;;;;;;5008381;28;20543;-76
2023/12/29 12:37:28;;;;;;;10.10;1.88;;;;;;;;;;4993872;28;20061;-75
2023/12/29 12:39:54;;;;;;;6.43;1.48;;;;;;;;;;5000931;28;20130;-75
2023/12/29 12:42:20;;;;;;;7.15;1.60;;;;;;;;;;5009536;28;20043;-76
2023/12/29 12:45:10;;;;;;;4.75;1.63;;;;;;;;;;5006836;28;20017;-77
2023/12/29 12:47:45;;;;;;;7.78;1.60;;;;;;;;;;4998698;28;20049;-77
2023/12/29 12:50:14;;;;;;;8.55;1.67;;;;;;;;;;4993707;28;20037;-76
2023/12/29 12:52:40;;;;;;;8.98;2.00;;;;;;;;;;4993625;28;20034;-77
2023/12/29 12:55:07;;;;;;;8.40;1.70;;;;;;;;;;4997209;28;20633;-77
2023/12/29 12:57:33;;;;;;;6.82;1.48;;;;;;;;;;4990192;28;20038;-77
2023/12/29 13:00:00;;;;;;;5.90;0.98;;;;;;;;;;4989284;28;20041;-77
2023/12/29 13:02:26;;;;;;;6.28;1.58;;;;;;;;;;4990251;28;20045;-77
2023/12/29 13:04:53;;;;;;;3.72;1.27;;;;;;;;;;4988052;28;20542;-78
2023/12/29 13:07:19;;;;;;;6.20;1.55;;;;;;;;;;4989103;28;20566;-78
2023/12/29 13:09:45;;;;;;;5.88;1.23;;;;;;;;;;4988865;28;20129;-78
2023/12/29 13:12:12;;;;;;;6.22;1.48;;;;;;;;;;4997004;28;20038;-77
2023/12/29 13:14:38;;;;;;;4.55;1.60;;;;;;;;;;5007728;28;20105;-77
2023/12/29 13:17:11;;;;;;;6.07;1.73;;;;;;;;;;5007505;28;20073;-77
2023/12/29 13:19:42;;;;;;;13.15;2.20;;;;;;;;;;5008011;28;20144;-77
2023/12/29 13:22:10;;;;;;;7.18;1.45;;;;;;;;;;5006742;28;20025;-78
2023/12/29 13:24:43;;;;;;;8.95;2.03;;;;;;;;;;5008172;28;20046;-77
2023/12/29 13:27:08;;;;;;;8.50;1.87;;;;;;;;;;5006520;28;20049;-77
2023/12/29 13:29:35;;;;;;;5.55;1.90;;;;;;;;;;5006195;28;20045;-77
2023/12/29 13:32:21;;;;;;;5.50;1.50;;;;;;;;;;5005343;28;20034;-77
2023/12/29 13:35:30;;;;;;;6.90;1.45;;;;;;;;;;5005743;28;20042;-78
2023/12/29 13:38:10;;;;;;;8.63;1.92;;;;;;;;;;5011964;28;20062;-78
2023/12/29 13:40:46;;;;;;;10.32;2.00;;;;;;;;;;5005358;28;20056;-77
2023/12/29 13:43:15;;;;;;;11.98;2.00;;;;;;;;;;5007173;28;20018;-77
2023/12/29 13:45:41;;;;;;;6.82;1.80;;;;;;;;;;4999053;28;20030;-78
2023/12/29 13:48:08;;;;;;;11.38;2.08;;;;;;;;;;4991076;28;20717;-77
2023/12/29 13:50:34;;;;;;;12.10;2.25;;;;;;;;;;4997096;28;20479;-77
2023/12/29 13:52:59;;;;;;;8.90;1.40;;;;;;;;;;5011990;28;20034;-78
2023/12/29 13:55:25;;;;;;;6.75;1.80;;;;;;;;;;4992520;28;20773;-77
2023/12/29 13:57:51;;;;;;;6.82;1.33;;;;;;;;;;4995611;28;20010;-77
2023/12/29 14:00:21;;;;;;;6.97;1.80;;;;;;;;;;5008528;28;20049;-77
2023/12/29 14:02:54;;;;;;;6.20;1.35;;;;;;;;;;5005091;28;20045;-77
2023/12/29 14:05:23;;;;;;;8.18;2.33;;;;;;;;;;5010680;28;20034;-77
2023/12/29 14:08:20;;;;;;;6.07;1.40;;;;;;;;;;5005825;28;20045;-77
2023/12/29 14:10:45;;;;;;;7.88;1.85;;;;;;;;;;5003733;28;20061;-79
2023/12/29 14:13:16;;;;;;;12.77;2.42;;;;;;;;;;4986700;28;20058;-77
2023/12/29 14:15:43;;;;;;;4.45;1.60;;;;;;;;;;4985772;28;20066;-77
2023/12/29 14:18:11;;;;;;;4.90;1.48;;;;;;;;;;4987294;28;20093;-78
2023/12/29 14:20:37;;;;;;;8.68;1.85;;;;;;;;;;4999644;28;20042;-77
2023/12/29 14:23:05;;;;;;;7.68;1.98;;;;;;;;;;5006620;28;20052;-77
2023/12/29 14:25:38;;;;;;;6.82;1.48;;;;;;;;;;5005981;28;20051;-77
2023/12/29 14:28:13;;;;;;;8.15;2.08;;;;;;;;;;5005127;28;20106;-77
2023/12/29 14:30:39;;;;;;;14.98;2.17;;;;;;;;;;5006780;28;20073;-77
2023/12/29 14:33:04;;;;;;;4.13;1.45;;;;;;;;;;5005328;28;20038;-77
2023/12/29 14:35:29;;;;;;;7.10;1.65;;;;;;;;;;5006515;28;20439;-78
2023/12/29 14:37:55;;;;;;;6.90;2.00;;;;;;;;;;5004473;28;20423;-77
2023/12/29 14:40:21;;;;;;;7.45;1.65;;;;;;;;;;5006255;28;20032;-77